createdAt,value
2023-05-21T00:00:47.666Z,45.12
2023-05-21T00:01:47.820Z,48.02
2023-05-21T00:02:47.722Z,54.95
2023-05-21T00:03:47.773Z,48.34
2023-05-21T00:04:47.619Z,53.66
2023-05-21T00:05:47.740Z,55.59
2023-05-21T00:06:47.626Z,56.88
2023-05-21T00:07:47.640Z,54.79
2023-05-21T00:08:47.534Z,53.98
2023-05-21T00:09:47.546Z,49.31
2023-05-21T00:10:47.575Z,56.24
2023-05-21T00:11:47.709Z,46.73
2023-05-21T00:12:47.472Z,48.18
2023-05-21T00:13:47.742Z,46.57
2023-05-21T00:14:47.582Z,56.56
2023-05-21T00:15:47.550Z,57.85
2023-05-21T00:16:47.808Z,52.05
2023-05-21T00:17:47.759Z,55.11
2023-05-21T00:18:47.547Z,53.98
2023-05-21T00:19:47.499Z,55.75
2023-05-21T00:20:47.461Z,51.08
2023-05-21T00:21:47.378Z,55.75
2023-05-21T00:22:47.609Z,54.79
2023-05-21T00:23:47.392Z,53.17
2023-05-21T00:24:47.582Z,55.43
2023-05-21T00:25:47.275Z,48.82
2023-05-21T00:26:47.345Z,44.47
2023-05-21T00:27:47.382Z,53.01
2023-05-21T00:28:47.360Z,51.40
2023-05-21T00:29:48.332Z,55.27
2023-05-21T00:30:47.294Z,54.95
2023-05-21T00:31:47.294Z,53.17
2023-05-21T00:32:47.614Z,46.08
2023-05-21T00:33:47.234Z,51.88
2023-05-21T00:34:47.323Z,50.92
2023-05-21T00:35:47.364Z,51.72
2023-05-21T00:36:47.209Z,53.82
2023-05-21T00:37:47.287Z,55.27
2023-05-21T00:38:47.305Z,50.60
2023-05-21T00:39:47.412Z,50.60
2023-05-21T00:40:47.134Z,46.41
2023-05-21T00:41:47.223Z,54.30
2023-05-21T00:42:47.237Z,58.65
2023-05-21T00:43:47.451Z,48.98
2023-05-21T00:44:47.198Z,56.56
2023-05-21T00:45:47.242Z,38.35
2023-05-21T00:46:47.122Z,45.12
2023-05-21T00:47:47.050Z,56.07
2023-05-21T00:48:47.147Z,52.85
2023-05-21T00:49:47.175Z,54.95
2023-05-21T00:50:47.195Z,56.40
2023-05-21T00:51:47.107Z,51.08
2023-05-21T00:52:47.114Z,54.79
2023-05-21T00:53:47.172Z,53.33
2023-05-21T00:54:47.030Z,49.63
2023-05-21T00:55:47.006Z,53.50
2023-05-21T00:56:46.978Z,52.69
2023-05-21T00:57:47.148Z,53.33
2023-05-21T00:58:47.100Z,48.02
2023-05-21T00:59:46.947Z,55.27
2023-05-21T01:00:46.994Z,56.07
2023-05-21T01:01:47.052Z,46.73
2023-05-21T01:02:47.216Z,42.38
2023-05-21T01:03:46.966Z,47.70
2023-05-21T01:04:47.034Z,50.60
2023-05-21T01:05:47.043Z,41.09
2023-05-21T01:06:46.905Z,52.21
2023-05-21T01:07:46.922Z,51.72
2023-05-21T01:08:47.067Z,44.79
2023-05-21T01:09:46.816Z,52.05
2023-05-21T01:10:46.830Z,51.24
2023-05-21T01:11:46.904Z,49.63
2023-05-21T01:12:46.766Z,46.89
2023-05-21T01:13:46.855Z,52.37
2023-05-21T01:14:46.827Z,46.89
2023-05-21T01:15:46.796Z,41.25
2023-05-21T01:16:46.872Z,40.61
2023-05-21T01:17:46.863Z,43.34
2023-05-21T01:18:46.855Z,35.29
2023-05-21T01:19:46.831Z,39.48
2023-05-21T01:20:46.978Z,49.31
2023-05-21T01:21:46.649Z,57.04
2023-05-21T01:22:46.636Z,53.82
2023-05-21T01:23:46.715Z,51.08
2023-05-21T01:24:46.789Z,39.32
2023-05-21T01:25:46.768Z,42.54
2023-05-21T01:26:46.682Z,50.11
2023-05-21T01:27:46.768Z,41.73
2023-05-21T01:28:46.809Z,50.60
2023-05-21T01:29:46.756Z,41.57
2023-05-21T01:30:46.717Z,50.27
2023-05-21T01:31:46.648Z,54.62
2023-05-21T01:32:46.805Z,50.76
2023-05-21T01:33:46.648Z,53.66
2023-05-21T01:34:46.720Z,47.05
2023-05-21T01:35:46.557Z,51.72
2023-05-21T01:36:46.656Z,38.51
2023-05-21T01:37:46.720Z,52.53
2023-05-21T01:38:46.605Z,50.27
2023-05-21T01:39:46.637Z,56.40
2023-05-21T01:40:46.461Z,53.01
2023-05-21T01:41:46.671Z,51.56
2023-05-21T01:42:46.564Z,47.53
2023-05-21T01:43:46.714Z,44.15
2023-05-21T01:44:46.687Z,57.52
2023-05-21T01:45:46.521Z,49.63
2023-05-21T01:46:46.739Z,48.02
2023-05-21T01:47:46.646Z,55.59
2023-05-21T01:48:46.555Z,39.96
2023-05-21T01:49:46.498Z,43.18
2023-05-21T01:50:46.568Z,48.66
2023-05-21T01:51:46.581Z,47.86
2023-05-21T01:52:46.566Z,49.47
2023-05-21T01:53:46.460Z,40.61
2023-05-21T01:54:46.554Z,39.48
2023-05-21T01:55:46.481Z,45.60
2023-05-21T01:56:46.483Z,38.67
2023-05-21T01:57:46.553Z,40.28
2023-05-21T01:58:46.438Z,40.93
2023-05-21T01:59:46.422Z,47.37
2023-05-21T02:00:46.387Z,57.20
2023-05-21T02:01:46.491Z,53.98
2023-05-21T02:02:46.630Z,53.17
2023-05-21T02:03:46.413Z,42.70
2023-05-21T02:04:46.466Z,55.27
2023-05-21T02:05:46.465Z,52.69
2023-05-21T02:06:46.361Z,41.25
2023-05-21T02:07:46.414Z,54.30
2023-05-21T02:08:46.329Z,48.18
2023-05-21T02:09:46.369Z,47.21
2023-05-21T02:10:46.278Z,54.30
2023-05-21T02:11:46.221Z,50.60
2023-05-21T02:12:46.348Z,42.86
2023-05-21T02:13:46.390Z,42.38
2023-05-21T02:14:46.410Z,44.31
2023-05-21T02:15:46.399Z,55.75
2023-05-21T02:16:46.404Z,45.44
2023-05-21T02:17:46.381Z,54.30
2023-05-21T02:18:46.455Z,54.14
2023-05-21T02:19:46.190Z,50.11
2023-05-21T02:20:46.155Z,49.63
2023-05-21T02:21:46.259Z,46.89
2023-05-21T02:22:46.219Z,46.89
2023-05-21T02:23:46.241Z,46.89
2023-05-21T02:24:46.262Z,55.75
2023-05-21T02:25:46.174Z,50.11
2023-05-21T02:26:46.105Z,55.75
2023-05-21T02:27:46.078Z,50.11
2023-05-21T02:28:46.061Z,54.95
2023-05-21T02:29:46.243Z,56.88
2023-05-21T02:30:46.083Z,51.56
2023-05-21T02:31:46.020Z,52.05
2023-05-21T02:32:46.098Z,53.33
2023-05-21T02:33:46.083Z,53.17
2023-05-21T02:34:46.059Z,58.97
2023-05-21T02:35:46.019Z,58.17
2023-05-21T02:36:46.113Z,52.21
2023-05-21T02:37:46.048Z,50.60
2023-05-21T02:38:46.037Z,54.14
2023-05-21T02:39:46.004Z,52.21
2023-05-21T02:40:45.937Z,52.21
2023-05-21T02:41:45.993Z,48.66
2023-05-21T02:42:46.103Z,54.46
2023-05-21T02:43:46.195Z,54.30
2023-05-21T02:44:46.057Z,51.24
2023-05-21T02:45:46.173Z,53.33
2023-05-21T02:46:46.045Z,60.26
2023-05-21T02:47:46.004Z,55.75
2023-05-21T02:48:46.028Z,49.63
2023-05-21T02:49:46.003Z,53.82
2023-05-21T02:50:45.961Z,52.21
2023-05-21T02:51:46.881Z,55.91
2023-05-21T02:52:45.920Z,56.24
2023-05-21T02:53:45.928Z,55.91
2023-05-21T02:54:45.810Z,58.81
2023-05-21T02:55:45.791Z,68.96
2023-05-21T02:56:45.851Z,57.52
2023-05-21T02:57:45.863Z,51.08
2023-05-21T02:58:45.869Z,53.98
2023-05-21T02:59:45.796Z,54.62
2023-05-21T03:00:45.896Z,60.42
2023-05-21T03:01:45.836Z,61.07
2023-05-21T03:02:45.826Z,60.91
2023-05-21T03:03:45.836Z,59.78
2023-05-21T03:04:45.816Z,61.87
2023-05-21T03:05:45.853Z,60.91
2023-05-21T03:06:45.699Z,61.23
2023-05-21T03:07:45.809Z,63.97
2023-05-21T03:08:45.684Z,63.49
2023-05-21T03:09:45.751Z,63.33
2023-05-21T03:10:45.873Z,62.20
2023-05-21T03:11:45.774Z,62.52
2023-05-21T03:12:45.750Z,61.39
2023-05-21T03:13:45.759Z,62.52
2023-05-21T03:14:45.688Z,62.36
2023-05-21T03:15:45.634Z,60.42
2023-05-21T03:16:45.763Z,61.07
2023-05-21T03:17:45.703Z,60.91
2023-05-21T03:18:45.604Z,61.87
2023-05-21T03:19:45.669Z,61.87
2023-05-21T03:20:45.531Z,61.55
2023-05-21T03:21:45.621Z,63.00
2023-05-21T03:22:45.608Z,62.84
2023-05-21T03:23:45.505Z,62.52
2023-05-21T03:24:45.528Z,60.91
2023-05-21T03:25:45.530Z,63.00
2023-05-21T03:26:45.612Z,63.33
2023-05-21T03:27:45.589Z,60.10
2023-05-21T03:28:45.667Z,61.07
2023-05-21T03:29:45.704Z,62.52
2023-05-21T03:30:45.467Z,60.59
2023-05-21T03:31:45.612Z,60.42
2023-05-21T03:32:45.545Z,62.36
2023-05-21T03:33:45.456Z,61.07
2023-05-21T03:34:45.498Z,60.75
2023-05-21T03:35:45.528Z,60.91
2023-05-21T03:36:45.524Z,62.20
2023-05-21T03:37:45.290Z,61.87
2023-05-21T03:38:45.356Z,60.75
2023-05-21T03:39:45.425Z,60.91
2023-05-21T03:40:45.332Z,59.78
2023-05-21T03:41:45.369Z,59.78
2023-05-21T03:42:45.326Z,61.39
2023-05-21T03:43:45.217Z,58.65
2023-05-21T03:44:45.438Z,59.94
2023-05-21T03:45:45.389Z,62.36
2023-05-21T03:46:45.211Z,63.49
2023-05-21T03:47:45.362Z,60.91
2023-05-21T03:48:45.326Z,62.36
2023-05-21T03:49:45.344Z,64.45
2023-05-21T03:50:45.418Z,65.10
2023-05-21T03:51:45.456Z,61.71
2023-05-21T03:52:45.129Z,61.39
2023-05-21T03:53:45.242Z,60.91
2023-05-21T03:54:45.220Z,60.91
2023-05-21T03:55:45.278Z,61.55
2023-05-21T03:56:45.226Z,62.68
2023-05-21T03:57:45.397Z,62.20
2023-05-21T03:58:45.501Z,62.68
2023-05-21T03:59:45.202Z,62.68
2023-05-21T04:00:45.279Z,63.65
2023-05-21T04:01:45.314Z,63.97
2023-05-21T04:02:45.207Z,60.75
2023-05-21T04:03:45.332Z,63.97
2023-05-21T04:04:45.127Z,66.23
2023-05-21T04:05:45.209Z,69.29
2023-05-21T04:06:45.108Z,65.42
2023-05-21T04:07:45.129Z,65.26
2023-05-21T04:08:45.138Z,65.26
2023-05-21T04:09:45.084Z,65.58
2023-05-21T04:10:45.036Z,63.97
2023-05-21T04:11:45.129Z,66.23
2023-05-21T04:12:45.200Z,66.06
2023-05-21T04:13:45.109Z,63.49
2023-05-21T04:14:45.277Z,65.26
2023-05-21T04:15:45.353Z,61.87
2023-05-21T04:16:45.235Z,64.61
2023-05-21T04:17:45.219Z,64.13
2023-05-21T04:18:45.845Z,59.94
2023-05-21T04:19:46.126Z,58.97
2023-05-21T04:20:45.221Z,63.97
2023-05-21T04:21:45.062Z,72.83
2023-05-21T04:22:44.903Z,64.78
2023-05-21T04:23:45.097Z,64.94
2023-05-21T04:24:44.977Z,62.36
2023-05-21T04:25:44.866Z,63.97
2023-05-21T04:26:44.996Z,63.81
2023-05-21T04:27:44.901Z,61.87
2023-05-21T04:28:44.958Z,60.75
2023-05-21T04:29:44.983Z,66.87
2023-05-21T04:30:44.970Z,60.91
2023-05-21T04:31:44.880Z,59.94
2023-05-21T04:32:44.965Z,59.94
2023-05-21T04:33:44.827Z,53.50
2023-05-21T04:34:44.910Z,55.27
2023-05-21T04:35:44.881Z,54.30
2023-05-21T04:36:44.831Z,57.04
2023-05-21T04:37:45.022Z,62.20
2023-05-21T04:38:44.767Z,60.91
2023-05-21T04:39:44.715Z,61.39
2023-05-21T04:40:44.743Z,60.42
2023-05-21T04:41:44.705Z,58.33
2023-05-21T04:42:44.761Z,58.17
2023-05-21T04:43:44.738Z,58.97
2023-05-21T04:44:44.852Z,60.75
2023-05-21T04:45:44.755Z,58.33
2023-05-21T04:46:44.773Z,59.62
2023-05-21T04:47:44.642Z,60.59
2023-05-21T04:48:44.701Z,60.59
2023-05-21T04:49:44.741Z,60.26
2023-05-21T04:50:44.619Z,60.42
2023-05-21T04:51:44.694Z,60.26
2023-05-21T04:52:44.622Z,60.10
2023-05-21T04:53:44.666Z,57.20
2023-05-21T04:54:44.750Z,59.94
2023-05-21T04:55:44.562Z,61.23
2023-05-21T04:56:44.645Z,57.85
2023-05-21T04:57:44.573Z,57.04
2023-05-21T04:58:44.616Z,61.71
2023-05-21T04:59:44.671Z,60.42
2023-05-21T05:00:44.625Z,57.85
2023-05-21T05:01:44.560Z,60.42
2023-05-21T05:02:44.786Z,61.07
2023-05-21T05:03:44.624Z,63.16
2023-05-21T05:04:44.546Z,62.84
2023-05-21T05:05:44.546Z,58.65
2023-05-21T05:06:44.496Z,59.30
2023-05-21T05:07:44.569Z,60.42
2023-05-21T05:08:44.565Z,61.07
2023-05-21T05:09:44.578Z,59.14
2023-05-21T05:10:44.406Z,55.75
2023-05-21T05:11:44.441Z,53.82
2023-05-21T05:12:44.615Z,53.98
2023-05-21T05:13:44.415Z,55.27
2023-05-21T05:14:44.394Z,59.14
2023-05-21T05:15:44.438Z,60.42
2023-05-21T05:16:44.387Z,60.10
2023-05-21T05:17:44.625Z,60.26
2023-05-21T05:18:44.420Z,60.10
2023-05-21T05:19:44.344Z,60.42
2023-05-21T05:20:44.348Z,60.91
2023-05-21T05:21:44.362Z,61.39
2023-05-21T05:22:44.314Z,62.84
2023-05-21T05:23:44.359Z,60.75
2023-05-21T05:24:44.319Z,57.69
2023-05-21T05:25:44.314Z,52.69
2023-05-21T05:26:44.346Z,57.20
2023-05-21T05:27:44.433Z,58.33
2023-05-21T05:28:44.230Z,47.21
2023-05-21T05:29:44.357Z,53.98
2023-05-21T05:30:44.161Z,58.65
2023-05-21T05:31:44.368Z,57.52
2023-05-21T05:32:44.203Z,59.46
2023-05-21T05:33:44.318Z,59.78
2023-05-21T05:34:44.146Z,59.30
2023-05-21T05:35:44.175Z,61.71
2023-05-21T05:36:44.332Z,61.55
2023-05-21T05:37:44.256Z,61.07
2023-05-21T05:38:44.150Z,61.23
2023-05-21T05:39:44.308Z,61.39
2023-05-21T05:40:44.124Z,59.62
2023-05-21T05:41:44.175Z,58.97
2023-05-21T05:42:44.044Z,61.23
2023-05-21T05:43:44.106Z,60.91
2023-05-21T05:44:44.162Z,57.69
2023-05-21T05:45:44.081Z,61.39
2023-05-21T05:47:25.055Z,59.46
2023-05-21T05:48:01.213Z,55.75
2023-05-21T05:49:25.258Z,58.97
2023-05-21T05:50:32.332Z,57.69
2023-05-21T05:50:52.141Z,53.66
2023-05-21T05:51:44.285Z,58.33
2023-05-21T05:52:45.062Z,56.24
2023-05-21T05:55:09.101Z,57.20
2023-05-21T05:57:18.246Z,0.00
2023-05-21T05:59:58.817Z,0.00
2023-05-21T06:00:58.237Z,0.00
2023-05-21T06:07:38.110Z,60.91
2023-05-21T06:13:11.369Z,60.91
2023-05-21T06:14:17.146Z,56.40
2023-05-21T06:15:27.147Z,60.75
2023-05-21T06:16:42.442Z,60.59
2023-05-21T06:25:27.369Z,59.62
2023-05-21T06:26:21.098Z,53.50
2023-05-21T06:55:57.553Z,59.30
2023-05-21T07:07:43.019Z,58.01
2023-05-21T07:18:21.398Z,59.62
2023-05-21T07:32:01.663Z,59.94
2023-05-21T07:32:46.073Z,59.14
2023-05-21T07:44:46.798Z,61.55
2023-05-21T07:51:27.367Z,60.10
2023-05-21T07:53:23.270Z,60.59
2023-05-21T07:58:20.225Z,60.59
2023-05-21T08:00:17.781Z,55.75
2023-05-21T08:00:21.772Z,0.00
2023-05-21T08:02:27.286Z,58.81
2023-05-21T08:18:09.051Z,54.79
2023-05-21T08:19:07.550Z,57.69
2023-05-21T08:20:08.459Z,59.78
2023-05-21T08:20:59.106Z,58.97
2023-05-21T08:21:59.804Z,61.39
2023-05-21T08:23:03.893Z,60.91
2023-05-21T08:24:18.549Z,59.62
2023-05-21T08:44:31.905Z,53.98
2023-05-21T08:48:27.293Z,53.66
2023-05-21T08:56:12.115Z,58.65
2023-05-21T08:57:00.346Z,59.62
2023-05-21T09:19:58.459Z,55.75
2023-05-21T09:20:56.884Z,49.15
2023-05-21T09:36:55.133Z,59.14
2023-05-21T09:37:58.957Z,58.65
2023-05-21T09:39:04.088Z,56.88
2023-05-21T10:04:41.736Z,56.88
2023-05-21T10:22:17.107Z,58.49
2023-05-21T10:23:49.066Z,57.85
2023-05-21T10:24:13.634Z,55.75
2023-05-21T10:30:23.356Z,58.81
2023-05-21T10:36:01.557Z,54.30
2023-05-21T10:39:27.956Z,57.69
2023-05-21T10:50:48.173Z,56.72
2023-05-21T10:51:14.036Z,56.07
2023-05-21T11:02:44.426Z,56.56
2023-05-21T11:03:37.850Z,53.98
2023-05-21T11:09:46.526Z,56.40
2023-05-21T11:10:43.621Z,56.72
2023-05-21T11:12:19.242Z,58.01
2023-05-21T11:13:17.897Z,56.56
2023-05-21T11:14:10.249Z,55.75
2023-05-21T11:14:57.816Z,57.20
2023-05-21T11:22:10.457Z,54.79
2023-05-21T11:29:47.334Z,57.04
2023-05-21T11:37:53.755Z,52.05
2023-05-21T11:38:53.972Z,52.53
2023-05-21T11:39:53.902Z,53.98
2023-05-21T11:48:07.100Z,54.79
2023-05-21T11:49:06.857Z,54.46
2023-05-21T11:50:06.990Z,56.24
2023-05-21T11:51:06.838Z,57.36
2023-05-21T11:52:06.776Z,58.01
2023-05-21T11:53:06.760Z,56.72
2023-05-21T11:54:06.757Z,56.07
2023-05-21T11:55:06.825Z,54.95
2023-05-21T11:56:06.774Z,56.40
2023-05-21T11:57:08.083Z,56.88
2023-05-21T11:58:07.981Z,56.56
2023-05-21T11:59:07.943Z,54.79
2023-05-21T12:00:07.944Z,54.79
2023-05-21T12:01:07.984Z,57.52
2023-05-21T12:02:07.952Z,57.52
2023-05-21T12:03:08.015Z,58.01
2023-05-21T12:04:08.058Z,57.69
2023-05-21T12:05:07.873Z,56.40
2023-05-21T12:06:07.995Z,54.95
2023-05-21T12:07:07.812Z,55.11
2023-05-21T12:08:08.105Z,60.91
2023-05-21T12:09:07.805Z,56.88
2023-05-21T12:10:07.825Z,55.43
2023-05-21T12:11:08.110Z,55.43
2023-05-21T12:12:07.773Z,54.62
2023-05-21T12:13:07.785Z,57.36
2023-05-21T12:14:07.946Z,57.36
2023-05-21T12:15:07.780Z,56.88
2023-05-21T12:16:07.793Z,55.27
2023-05-21T12:17:07.684Z,55.11
2023-05-21T12:18:07.929Z,55.59
2023-05-21T12:19:07.878Z,56.88
2023-05-21T12:20:07.818Z,52.53
2023-05-21T12:21:07.723Z,54.62
2023-05-21T12:22:07.699Z,55.59
2023-05-21T12:23:07.731Z,54.30
2023-05-21T12:24:07.934Z,51.88
2023-05-21T12:25:07.644Z,50.60
2023-05-21T12:26:07.649Z,51.40
2023-05-21T12:27:07.790Z,52.05
2023-05-21T12:28:07.606Z,56.24
2023-05-21T12:29:07.592Z,55.27
2023-05-21T12:30:07.743Z,56.56
2023-05-21T12:31:07.554Z,55.27
2023-05-21T12:32:07.787Z,53.98
2023-05-21T12:33:07.601Z,54.30
2023-05-21T12:34:07.598Z,56.40
2023-05-21T12:35:07.567Z,54.79
2023-05-21T12:36:07.543Z,54.62
2023-05-21T12:37:07.524Z,52.69
2023-05-21T12:38:07.565Z,53.82
2023-05-21T12:39:09.345Z,55.27
2023-05-21T12:40:07.545Z,55.11
2023-05-21T12:41:07.549Z,55.75
2023-05-21T12:42:07.526Z,55.27
2023-05-21T12:43:07.445Z,55.43
2023-05-21T12:44:07.979Z,57.69
2023-05-21T12:45:07.424Z,58.49
2023-05-21T12:46:07.659Z,57.52
2023-05-21T12:47:07.759Z,56.40
2023-05-21T12:48:07.498Z,57.36
2023-05-21T12:49:07.417Z,56.56
2023-05-21T12:50:07.574Z,56.56
2023-05-21T12:51:07.580Z,53.50
2023-05-21T12:52:07.514Z,54.14
2023-05-21T12:53:07.333Z,56.72
2023-05-21T12:54:07.356Z,56.72
2023-05-21T12:55:09.394Z,56.88
2023-05-21T12:56:07.306Z,57.36
2023-05-21T12:57:07.384Z,57.04
2023-05-21T12:58:07.272Z,58.01
2023-05-21T12:59:07.394Z,56.07
2023-05-21T13:00:07.367Z,53.33
2023-05-21T13:01:07.356Z,53.66
2023-05-21T13:02:07.358Z,53.98
2023-05-21T13:03:07.482Z,56.56
2023-05-21T13:04:07.321Z,51.72
2023-05-21T13:05:07.324Z,54.62
2023-05-21T13:06:07.743Z,57.85
2023-05-21T13:07:07.331Z,56.88
2023-05-21T13:08:07.403Z,56.88
2023-05-21T13:09:07.297Z,53.82
2023-05-21T13:10:07.167Z,56.56
2023-05-21T13:11:07.372Z,56.40
2023-05-21T13:12:07.205Z,62.52
2023-05-21T13:13:07.318Z,56.56
2023-05-21T13:14:07.179Z,55.27
2023-05-21T13:15:07.253Z,54.14
2023-05-21T13:16:07.160Z,55.75
2023-05-21T13:17:07.151Z,55.43
2023-05-21T13:18:07.165Z,56.07
2023-05-21T13:19:07.238Z,56.72
2023-05-21T13:20:07.519Z,56.72
2023-05-21T13:21:07.169Z,57.20
2023-05-21T13:22:07.165Z,56.07
2023-05-21T13:23:09.036Z,62.52
2023-05-21T13:24:07.173Z,55.43
2023-05-21T13:25:07.013Z,57.20
2023-05-21T13:26:07.065Z,63.49
2023-05-21T13:27:07.029Z,57.20
2023-05-21T13:28:07.040Z,56.24
2023-05-21T13:29:07.173Z,58.49
2023-05-21T13:30:07.025Z,57.52
2023-05-21T13:31:07.056Z,56.56
2023-05-21T13:32:07.194Z,56.24
2023-05-21T13:33:06.999Z,56.88
2023-05-21T13:34:07.096Z,56.56
2023-05-21T13:35:06.948Z,56.88
2023-05-21T13:36:06.968Z,57.20
2023-05-21T13:37:07.013Z,57.04
2023-05-21T13:38:06.909Z,56.56
2023-05-21T13:39:06.927Z,53.33
2023-05-21T13:40:07.008Z,53.82
2023-05-21T13:41:07.275Z,52.21
2023-05-21T13:42:06.957Z,54.46
2023-05-21T13:43:06.882Z,55.75
2023-05-21T13:44:06.939Z,55.75
2023-05-21T13:45:06.823Z,54.79
2023-05-21T13:46:06.971Z,54.46
2023-05-21T13:47:06.903Z,56.88
2023-05-21T13:48:07.079Z,58.17
2023-05-21T13:49:06.847Z,55.11
2023-05-21T13:50:06.891Z,55.11
2023-05-21T13:51:06.822Z,53.82
2023-05-21T13:52:06.837Z,58.97
2023-05-21T13:53:06.773Z,54.79
2023-05-21T13:54:39.536Z,55.59
2023-05-21T13:55:07.103Z,55.27
2023-05-21T13:56:06.947Z,55.43
2023-05-21T13:57:06.743Z,56.40
2023-05-21T13:58:06.750Z,57.04
2023-05-21T13:59:06.753Z,57.04
2023-05-21T14:00:06.844Z,54.30
2023-05-21T14:01:06.782Z,52.85
2023-05-21T14:02:06.919Z,53.82
2023-05-21T14:03:06.941Z,51.72
2023-05-21T14:04:06.978Z,52.37
2023-05-21T14:05:06.909Z,56.07
2023-05-21T14:06:06.661Z,56.24
2023-05-21T14:07:06.673Z,67.84
2023-05-21T14:08:06.715Z,60.26
2023-05-21T14:09:06.701Z,54.95
2023-05-21T14:10:41.771Z,53.82
2023-05-21T14:11:06.896Z,52.53
2023-05-21T14:12:40.263Z,52.69
2023-05-21T14:13:40.241Z,53.66
2023-05-21T14:14:40.623Z,54.46
2023-05-21T14:15:39.281Z,56.72
2023-05-21T14:16:33.278Z,57.69
2023-05-21T14:17:06.905Z,55.91
2023-05-21T14:18:40.584Z,55.27
2023-05-21T14:19:39.611Z,53.33
2023-05-21T14:20:39.416Z,51.24
2023-05-21T14:21:39.755Z,52.21
2023-05-21T14:22:07.282Z,53.01
2023-05-21T14:23:07.036Z,54.30
2023-05-21T14:24:39.216Z,53.50
2023-05-21T14:25:39.213Z,51.88
2023-05-21T14:26:39.298Z,52.37
2023-05-21T14:27:34.491Z,53.82
2023-05-21T14:28:07.140Z,54.30
2023-05-21T14:29:07.041Z,55.11
2023-05-21T14:30:06.450Z,56.40
2023-05-21T14:31:06.550Z,57.20
2023-05-21T14:32:40.756Z,56.56
2023-05-21T14:33:07.476Z,53.01
2023-05-21T14:34:39.145Z,53.17
2023-05-21T14:35:39.171Z,49.63
2023-05-21T14:36:40.271Z,54.62
2023-05-21T14:37:44.060Z,66.55
2023-05-21T14:38:39.767Z,57.36
2023-05-21T14:44:49.195Z,56.72
2023-05-21T14:46:14.629Z,49.95
2023-05-21T14:46:35.656Z,50.92
2023-05-21T14:48:08.204Z,53.17
2023-05-21T14:49:08.964Z,53.82
2023-05-21T14:49:36.181Z,53.01
2023-05-21T14:51:08.596Z,60.91
2023-05-21T14:51:34.895Z,51.40
2023-05-21T14:52:35.437Z,50.43
2023-05-21T14:54:07.583Z,51.88
2023-05-21T14:54:38.398Z,47.53
2023-05-21T14:55:37.200Z,55.59
2023-05-21T14:56:35.273Z,52.05
2023-05-21T14:57:34.525Z,52.05
2023-05-21T14:58:34.514Z,54.46
2023-05-21T14:59:34.743Z,55.91
2023-05-21T15:00:36.108Z,55.11
2023-05-21T15:02:01.281Z,52.21
2023-05-21T15:02:35.005Z,59.94
2023-05-21T15:04:17.953Z,70.42
2023-05-21T15:04:43.835Z,60.91
2023-05-21T15:06:09.484Z,55.75
2023-05-21T15:07:06.799Z,55.91
2023-05-21T15:08:01.870Z,54.95
2023-05-21T15:08:34.389Z,54.62
2023-05-21T15:09:34.182Z,55.75
2023-05-21T15:11:10.373Z,56.40
2023-05-21T15:16:53.912Z,54.95
2023-05-21T15:21:05.788Z,55.43
2023-05-21T15:22:05.826Z,57.69
2023-05-21T15:23:15.893Z,55.91
2023-05-21T15:24:06.705Z,55.11
2023-05-21T15:25:05.676Z,56.88
2023-05-21T15:26:05.729Z,57.85
2023-05-21T15:27:05.640Z,67.19
2023-05-21T15:28:15.550Z,56.72
2023-05-21T15:32:01.591Z,53.17
2023-05-21T15:33:02.571Z,54.30
2023-05-21T15:34:01.612Z,54.30
2023-05-21T15:34:54.002Z,57.69
2023-05-21T15:36:01.744Z,56.24
2023-05-21T15:36:53.850Z,56.24
2023-05-21T15:37:53.989Z,54.79
2023-05-21T15:42:47.882Z,54.79
2023-05-21T15:43:55.615Z,52.69
